createdAt,value
2018-01-12T00:00:02.102Z,25.00
2018-01-12T00:01:03.133Z,14.38
2018-01-12T00:02:05.007Z,22.02
2018-01-12T00:03:06.864Z,22.65
2018-01-12T00:04:08.002Z,23.98
2018-01-12T00:05:09.132Z,23.80
2018-01-12T00:06:10.932Z,25.70
2018-01-12T00:07:12.028Z,23.15
2018-01-12T00:08:13.124Z,23.23
2018-01-12T00:09:14.229Z,21.35
2018-01-12T00:10:15.315Z,21.83
2018-01-12T00:11:16.388Z,22.40
2018-01-12T00:12:17.507Z,30.67
2018-01-12T00:13:18.619Z,18.83
2018-01-12T00:14:19.681Z,21.60
2018-01-12T00:15:20.782Z,22.58
2018-01-12T00:16:21.871Z,21.62
2018-01-12T00:17:22.947Z,30.10
2018-01-12T00:18:24.068Z,23.45
2018-01-12T00:19:25.128Z,20.05
2018-01-12T00:20:26.199Z,20.25
2018-01-12T00:21:28.034Z,19.27
2018-01-12T00:22:29.119Z,21.45
2018-01-12T00:23:30.220Z,16.92
2018-01-12T00:24:31.283Z,23.20
2018-01-12T00:25:32.359Z,24.73
2018-01-12T00:26:33.463Z,25.65
2018-01-12T00:27:35.299Z,24.23
2018-01-12T00:28:36.384Z,19.60
2018-01-12T00:29:37.771Z,17.35
2018-01-12T00:30:38.846Z,19.08
2018-01-12T00:31:39.910Z,22.55
2018-01-12T00:32:41.708Z,17.87
2018-01-12T00:33:42.955Z,18.85
2018-01-12T00:34:44.036Z,22.45
2018-01-12T00:35:45.109Z,22.40
2018-01-12T00:36:46.191Z,21.17
2018-01-12T00:37:47.271Z,24.90
2018-01-12T00:38:48.398Z,20.10
2018-01-12T00:39:49.490Z,20.80
2018-01-12T00:40:51.319Z,22.48
2018-01-12T00:41:52.412Z,24.55
2018-01-12T00:42:53.490Z,22.92
2018-01-12T00:43:54.759Z,18.10
2018-01-12T00:44:55.872Z,18.37
2018-01-12T00:45:56.967Z,21.30
2018-01-12T00:46:58.082Z,18.20
2018-01-12T00:47:59.162Z,19.80
2018-01-12T00:49:01.003Z,21.87
2018-01-12T00:50:02.099Z,20.35
2018-01-12T00:51:03.179Z,19.12
2018-01-12T00:52:04.995Z,19.50
2018-01-12T00:53:06.075Z,20.45
2018-01-12T00:54:07.192Z,15.77
2018-01-12T00:55:09.024Z,25.27
2018-01-12T00:56:10.128Z,21.70
2018-01-12T00:57:11.205Z,27.05
2018-01-12T00:58:13.040Z,21.40
2018-01-12T00:59:14.142Z,22.33
2018-01-12T01:00:15.224Z,23.42
2018-01-12T01:01:17.054Z,20.25
2018-01-12T01:02:18.147Z,22.75
2018-01-12T01:03:19.226Z,21.08
2018-01-12T01:04:20.296Z,22.30
2018-01-12T01:05:22.118Z,23.85
2018-01-12T01:06:23.943Z,19.40
2018-01-12T01:07:25.016Z,22.80
2018-01-12T01:08:26.129Z,19.75
2018-01-12T01:09:27.951Z,22.87
2018-01-12T01:10:29.020Z,23.23
2018-01-12T01:11:30.850Z,18.48
2018-01-12T01:12:31.923Z,20.25
2018-01-12T01:13:32.982Z,21.15
2018-01-12T01:14:34.059Z,17.95
2018-01-12T01:15:35.119Z,22.92
2018-01-12T01:16:36.203Z,23.67
2018-01-12T01:17:37.271Z,18.65
2018-01-12T01:18:41.231Z,23.65
2018-01-12T01:19:42.398Z,17.83
2018-01-12T01:20:43.470Z,20.42
2018-01-12T01:21:44.548Z,23.58
2018-01-12T01:22:45.616Z,20.62
2018-01-12T01:23:46.724Z,20.33
2018-01-12T01:24:47.814Z,22.42
2018-01-12T01:25:48.888Z,18.70
2018-01-12T01:26:50.723Z,22.70
2018-01-12T01:27:51.818Z,24.30
2018-01-12T01:28:53.033Z,24.25
2018-01-12T01:29:54.860Z,21.30
2018-01-12T01:30:56.671Z,18.85
2018-01-12T01:32:03.746Z,20.95
2018-01-12T01:33:04.834Z,21.62
2018-01-12T01:34:05.926Z,18.42
2018-01-12T01:35:07.766Z,21.50
2018-01-12T01:36:08.875Z,20.15
2018-01-12T01:37:09.980Z,18.17
2018-01-12T01:38:11.084Z,22.00
2018-01-12T01:39:12.166Z,20.80
2018-01-12T01:40:13.251Z,24.65
2018-01-12T01:41:15.083Z,26.62
2018-01-12T01:42:16.163Z,22.52
2018-01-12T01:43:17.267Z,20.27
2018-01-12T01:44:19.102Z,20.05
2018-01-12T01:45:20.192Z,24.02
2018-01-12T01:46:21.267Z,18.52
2018-01-12T01:47:22.348Z,24.73
2018-01-12T01:48:35.654Z,27.27
2018-01-12T01:49:36.732Z,20.58
2018-01-12T01:50:37.815Z,23.10
2018-01-12T01:51:38.900Z,18.30
2018-01-12T01:52:39.974Z,24.08
2018-01-12T01:53:41.035Z,23.80
2018-01-12T01:54:42.106Z,20.98
2018-01-12T01:55:43.209Z,22.27
2018-01-12T01:56:44.286Z,18.77
2018-01-12T01:57:46.106Z,21.70
2018-01-12T01:58:47.239Z,22.30
2018-01-12T01:59:48.319Z,18.60
2018-01-12T02:00:49.399Z,24.73
2018-01-12T02:01:50.531Z,20.23
2018-01-12T02:02:51.611Z,23.12
2018-01-12T02:03:52.682Z,21.27
2018-01-12T02:04:53.760Z,19.87
2018-01-12T02:05:54.894Z,22.20
2018-01-12T02:06:55.951Z,20.60
2018-01-12T02:07:57.777Z,19.55
2018-01-12T02:08:58.847Z,25.90
2018-01-12T02:09:59.911Z,27.85
2018-01-12T02:11:01.314Z,24.10
2018-01-12T02:12:02.380Z,28.20
2018-01-12T02:13:03.478Z,25.42
2018-01-12T02:14:04.535Z,25.12
2018-01-12T02:15:05.604Z,24.20
2018-01-12T02:16:07.003Z,29.75
2018-01-12T02:17:08.087Z,25.70
2018-01-12T02:18:10.479Z,27.77
2018-01-12T02:19:11.575Z,33.92
2018-01-12T02:20:12.659Z,24.87
2018-01-12T02:21:13.761Z,22.83
2018-01-12T02:22:14.843Z,24.10
2018-01-12T02:23:15.911Z,26.67
2018-01-12T02:24:17.726Z,25.52
2018-01-12T02:25:18.803Z,24.45
2018-01-12T02:26:20.631Z,26.00
2018-01-12T02:27:22.460Z,26.10
2018-01-12T02:28:23.560Z,24.48
2018-01-12T02:29:24.655Z,27.33
2018-01-12T02:30:25.740Z,27.35
2018-01-12T02:31:26.828Z,27.45
2018-01-12T02:32:27.916Z,24.33
2018-01-12T02:33:28.982Z,25.52
2018-01-12T02:34:30.076Z,25.52
2018-01-12T02:35:31.149Z,22.85
2018-01-12T02:36:32.972Z,22.67
2018-01-12T02:37:34.050Z,20.25
2018-01-12T02:38:35.123Z,37.00
2018-01-12T02:39:36.191Z,24.10
2018-01-12T02:40:38.020Z,24.77
2018-01-12T02:41:39.091Z,20.48
2018-01-12T02:42:40.899Z,23.55
2018-01-12T02:43:41.976Z,23.40
2018-01-12T02:44:43.799Z,22.48
2018-01-12T02:45:44.877Z,20.08
2018-01-12T02:46:45.950Z,24.75
2018-01-12T02:47:47.047Z,27.58
2018-01-12T02:48:48.132Z,24.30
2018-01-12T02:49:49.211Z,21.83
2018-01-12T02:50:50.300Z,26.33
2018-01-12T02:51:52.158Z,27.40
2018-01-12T02:52:53.241Z,29.90
2018-01-12T02:53:54.315Z,24.85
2018-01-12T02:54:56.137Z,31.35
2018-01-12T02:55:57.211Z,32.17
2018-01-12T02:56:58.296Z,19.10
2018-01-12T02:57:59.367Z,25.20
2018-01-12T02:59:01.179Z,23.48
2018-01-12T03:00:02.269Z,24.37
2018-01-12T03:01:03.347Z,20.75
2018-01-12T03:02:04.443Z,23.08
2018-01-12T03:03:06.256Z,25.85
2018-01-12T03:04:08.087Z,23.38
2018-01-12T03:05:09.178Z,22.30
2018-01-12T03:06:10.251Z,22.23
2018-01-12T03:07:11.366Z,25.25
2018-01-12T03:08:12.448Z,24.30
2018-01-12T03:09:13.532Z,21.27
2018-01-12T03:10:14.602Z,22.75
2018-01-12T03:11:16.435Z,18.62
2018-01-12T03:12:17.522Z,25.12
2018-01-12T03:13:18.601Z,22.05
2018-01-12T03:14:19.679Z,26.52
2018-01-12T03:15:20.754Z,23.12
2018-01-12T03:16:21.824Z,17.40
2018-01-12T03:17:22.904Z,21.40
2018-01-12T03:18:23.968Z,20.05
2018-01-12T03:19:25.047Z,20.70
2018-01-12T03:20:26.156Z,22.58
2018-01-12T03:21:27.226Z,26.55
2018-01-12T03:22:28.371Z,22.80
2018-01-12T03:23:29.440Z,18.08
2018-01-12T03:24:31.243Z,25.48
2018-01-12T03:25:32.306Z,25.88
2018-01-12T03:26:33.374Z,26.83
2018-01-12T03:27:34.447Z,22.87
2018-01-12T03:28:35.523Z,19.75
2018-01-12T03:29:37.346Z,24.45
2018-01-12T03:30:38.428Z,22.45
2018-01-12T03:31:39.736Z,30.17
2018-01-12T03:32:41.567Z,23.55
2018-01-12T03:33:42.650Z,25.25
2018-01-12T03:34:43.727Z,23.73
2018-01-12T03:35:44.802Z,27.25
2018-01-12T03:36:45.870Z,24.23
2018-01-12T03:37:46.948Z,26.85
2018-01-12T03:38:48.763Z,25.60
2018-01-12T03:39:49.832Z,21.60
2018-01-12T03:40:51.648Z,23.98
2018-01-12T03:41:52.719Z,24.70
2018-01-12T03:42:54.531Z,27.17
2018-01-12T03:43:55.607Z,21.87
2018-01-12T03:44:56.683Z,22.40
2018-01-12T03:45:57.767Z,24.37
2018-01-12T03:46:58.845Z,27.48
2018-01-12T03:47:59.955Z,23.85
2018-01-12T03:49:01.027Z,28.15
2018-01-12T03:50:02.098Z,24.08
2018-01-12T03:51:03.180Z,27.13
2018-01-12T03:52:04.258Z,27.13
2018-01-12T03:53:05.357Z,27.05
2018-01-12T03:54:06.435Z,22.27
2018-01-12T03:55:07.522Z,25.88
2018-01-12T03:56:08.616Z,21.52
2018-01-12T03:57:09.703Z,25.15
2018-01-12T03:58:11.532Z,25.30
2018-01-12T03:59:12.605Z,20.73
2018-01-12T04:00:13.688Z,23.65
2018-01-12T04:01:14.759Z,23.95
2018-01-12T04:02:16.586Z,23.02
2018-01-12T04:03:17.651Z,22.70
2018-01-12T04:04:18.725Z,24.65
2018-01-12T04:05:19.785Z,24.00
2018-01-12T04:06:20.875Z,21.90
2018-01-12T04:07:21.961Z,27.23
2018-01-12T04:08:23.022Z,21.42
2018-01-12T04:09:24.100Z,27.50
2018-01-12T04:10:25.167Z,23.87
2018-01-12T04:11:26.279Z,21.35
2018-01-12T04:12:27.380Z,22.65
2018-01-12T04:13:28.460Z,29.15
2018-01-12T04:14:30.291Z,21.37
2018-01-12T04:15:31.363Z,29.55
2018-01-12T04:16:32.431Z,26.42
2018-01-12T04:17:33.563Z,19.35
2018-01-12T04:18:34.642Z,24.63
2018-01-12T04:19:36.450Z,26.12
2018-01-12T04:20:37.527Z,23.80
2018-01-12T04:21:38.600Z,24.83
2018-01-12T04:22:39.679Z,26.37
2018-01-12T04:23:40.758Z,26.98
2018-01-12T04:24:41.822Z,25.95
2018-01-12T04:25:42.898Z,21.20
2018-01-12T04:26:43.979Z,30.52
2018-01-12T04:27:45.044Z,19.35
2018-01-12T04:28:46.868Z,30.98
2018-01-12T04:29:47.931Z,28.55
2018-01-12T04:30:49.752Z,22.02
2018-01-12T04:31:50.827Z,27.50
2018-01-12T04:32:51.903Z,24.95
2018-01-12T04:33:53.000Z,28.80
2018-01-12T04:34:54.075Z,22.45
2018-01-12T04:35:55.182Z,24.12
2018-01-12T04:36:56.262Z,23.40
2018-01-12T04:37:57.359Z,25.00
2018-01-12T04:38:59.236Z,27.98
2018-01-12T04:40:00.307Z,21.52
2018-01-12T04:41:01.395Z,22.87
2018-01-12T04:42:02.483Z,25.40
2018-01-12T04:43:03.568Z,24.10
2018-01-12T04:44:04.637Z,26.95
2018-01-12T04:45:05.725Z,26.50
2018-01-12T04:46:06.808Z,26.37
2018-01-12T04:47:07.890Z,22.20
2018-01-12T04:48:08.974Z,24.27
2018-01-12T04:49:10.039Z,24.35
2018-01-12T04:50:11.122Z,20.27
2018-01-12T04:51:12.286Z,22.50
2018-01-12T04:52:13.431Z,21.25
2018-01-12T04:53:14.530Z,25.92
2018-01-12T04:54:15.603Z,25.65
2018-01-12T04:55:16.678Z,20.75
2018-01-12T04:56:18.512Z,27.02
2018-01-12T04:57:19.592Z,26.73
2018-01-12T04:58:20.672Z,29.65
2018-01-12T04:59:21.773Z,34.45
2018-01-12T05:00:22.896Z,22.02
2018-01-12T05:01:23.980Z,25.02
2018-01-12T05:02:25.069Z,27.60
2018-01-12T05:03:26.164Z,21.75
2018-01-12T05:04:27.260Z,22.05
2018-01-12T05:05:28.329Z,30.15
2018-01-12T05:06:29.441Z,30.48
2018-01-12T05:07:30.524Z,40.88
2018-01-12T05:08:31.615Z,24.55
2018-01-12T05:09:33.435Z,27.10
2018-01-12T05:10:34.524Z,21.00
2018-01-12T05:11:35.605Z,31.02
2018-01-12T05:12:37.443Z,22.37
2018-01-12T05:13:38.525Z,20.73
2018-01-12T05:14:39.611Z,26.00
2018-01-12T05:15:40.689Z,23.70
2018-01-12T05:16:41.785Z,24.12
2018-01-12T05:17:42.876Z,25.05
2018-01-12T05:18:44.688Z,36.53
2018-01-12T05:19:46.525Z,22.10
2018-01-12T05:20:47.607Z,22.75
2018-01-12T05:21:48.703Z,20.88
2018-01-12T05:22:50.524Z,21.58
2018-01-12T05:23:51.603Z,24.10
2018-01-12T05:24:52.682Z,28.15
2018-01-12T05:25:53.759Z,21.80
2018-01-12T05:26:54.831Z,25.70
2018-01-12T05:27:55.924Z,25.50
2018-01-12T05:28:57.035Z,25.95
2018-01-12T05:29:58.858Z,19.75
2018-01-12T05:30:59.947Z,23.08
2018-01-12T05:32:01.115Z,20.67
2018-01-12T05:33:02.191Z,27.35
2018-01-12T05:34:10.130Z,23.95
2018-01-12T05:35:11.194Z,20.98
2018-01-12T05:36:12.277Z,24.33
2018-01-12T05:37:13.351Z,21.30
2018-01-12T05:38:14.427Z,28.48
2018-01-12T05:39:15.540Z,26.35
2018-01-12T05:40:16.632Z,22.77
2018-01-12T05:41:17.723Z,20.17
2018-01-12T05:42:18.800Z,26.58
2018-01-12T05:43:19.871Z,22.42
2018-01-12T05:44:20.959Z,23.50
2018-01-12T05:45:22.059Z,24.65
2018-01-12T05:46:23.136Z,18.45
2018-01-12T05:47:24.207Z,24.35
2018-01-12T05:48:26.015Z,20.85
2018-01-12T05:49:27.087Z,20.20
2018-01-12T05:50:28.160Z,19.90
2018-01-12T05:51:29.226Z,19.95
2018-01-12T05:52:30.299Z,23.05
2018-01-12T05:53:31.372Z,20.52
2018-01-12T05:54:32.451Z,23.15
2018-01-12T05:55:34.263Z,27.85
2018-01-12T05:56:35.403Z,23.50
2018-01-12T05:57:36.463Z,21.58
2018-01-12T05:58:37.528Z,21.98
2018-01-12T05:59:38.835Z,21.52
2018-01-12T06:00:39.919Z,18.52
2018-01-12T06:03:27.939Z,20.70
2018-01-12T06:04:42.126Z,17.35
2018-01-12T06:05:55.538Z,21.95
2018-01-12T06:06:56.590Z,24.35
2018-01-12T06:07:57.667Z,17.35
2018-01-12T06:08:58.732Z,22.10
2018-01-12T06:10:00.636Z,24.20
2018-01-12T06:11:01.704Z,18.75
2018-01-12T06:12:02.775Z,16.87
2018-01-12T06:13:03.874Z,19.75
2018-01-12T06:14:04.938Z,19.35
2018-01-12T06:15:06.023Z,19.85
2018-01-12T06:16:07.138Z,19.65
2018-01-12T06:17:08.951Z,26.27
2018-01-12T06:18:10.775Z,21.77
2018-01-12T06:19:11.859Z,20.02
2018-01-12T06:20:12.943Z,18.42
2018-01-12T06:21:14.044Z,17.62
2018-01-12T06:22:15.115Z,20.27
2018-01-12T06:23:16.184Z,19.00
2018-01-12T06:24:17.263Z,24.70
2018-01-12T06:25:18.348Z,22.10
2018-01-12T06:26:19.427Z,19.77
2018-01-12T06:27:20.515Z,18.92
2018-01-12T06:28:21.583Z,21.87
2018-01-12T06:29:22.662Z,15.30
2018-01-12T06:30:23.746Z,20.77
2018-01-12T06:31:24.811Z,18.73
2018-01-12T06:32:25.882Z,22.73
2018-01-12T06:33:27.705Z,18.92
2018-01-12T06:34:29.531Z,21.50
2018-01-12T06:35:30.607Z,21.08
2018-01-12T06:36:31.699Z,24.42
2018-01-12T06:37:33.540Z,18.15
2018-01-12T06:38:34.667Z,23.27
2018-01-12T06:39:35.743Z,14.40
2018-01-12T06:40:37.596Z,21.73
2018-01-12T06:41:38.690Z,21.87
2018-01-12T06:42:39.762Z,19.75
2018-01-12T06:43:40.834Z,21.70
2018-01-12T06:44:41.908Z,21.20
2018-01-12T06:45:42.978Z,15.65
2018-01-12T06:46:44.055Z,18.83
2018-01-12T06:47:45.152Z,14.77
2018-01-12T06:48:46.219Z,19.42
2018-01-12T06:49:48.137Z,19.65
2018-01-12T06:50:49.206Z,17.23
2018-01-12T06:51:50.319Z,18.98
2018-01-12T06:52:51.362Z,15.18
2018-01-12T06:53:52.434Z,20.67
2018-01-12T06:54:53.519Z,16.75
2018-01-12T06:55:54.671Z,21.80
2018-01-12T06:56:55.748Z,19.10
2018-01-12T06:57:56.810Z,16.00
2018-01-12T06:58:57.904Z,17.12
2018-01-12T06:59:58.983Z,17.65
2018-01-12T07:01:00.081Z,19.05
2018-01-12T07:02:01.175Z,16.62
2018-01-12T07:03:03.005Z,15.73
2018-01-12T07:04:04.082Z,20.23
2018-01-12T07:05:05.185Z,20.23
2018-01-12T07:06:07.674Z,15.20
2018-01-12T07:07:08.759Z,25.05
2018-01-12T07:08:09.830Z,19.90
2018-01-12T07:09:10.941Z,24.77
2018-01-12T07:10:12.033Z,17.77
2018-01-12T07:11:13.141Z,21.95
2018-01-12T07:12:14.864Z,13.85
2018-01-12T07:13:15.944Z,15.20
2018-01-12T07:14:17.164Z,17.25
2018-01-12T07:15:18.260Z,16.30
2018-01-12T07:16:19.328Z,14.80
2018-01-12T07:17:20.411Z,17.15
2018-01-12T07:18:21.542Z,15.45
2018-01-12T07:19:22.619Z,20.15
2018-01-12T07:20:35.930Z,15.45
2018-01-12T07:21:49.319Z,15.20
2018-01-12T07:23:02.609Z,18.23
2018-01-12T07:24:03.677Z,16.70
2018-01-12T07:25:05.451Z,15.00
2018-01-12T07:26:06.583Z,16.08
2018-01-12T07:27:07.671Z,20.10
2018-01-12T07:28:08.747Z,19.52
2018-01-12T07:29:09.823Z,16.95
2018-01-12T07:30:10.911Z,19.00
2018-01-12T07:31:12.012Z,16.58
2018-01-12T07:32:13.098Z,16.80
2018-01-12T07:33:14.188Z,15.43
2018-01-12T07:34:15.328Z,15.25
2018-01-12T07:35:16.426Z,15.60
2018-01-12T07:36:18.187Z,18.58
2018-01-12T07:37:19.273Z,17.05
2018-01-12T07:38:20.343Z,15.43
2018-01-12T07:39:21.472Z,19.45
2018-01-12T07:40:22.511Z,16.10
2018-01-12T07:41:23.583Z,16.00
2018-01-12T07:42:24.667Z,20.10
2018-01-12T07:43:25.749Z,14.98
2018-01-12T07:44:26.902Z,19.45
2018-01-12T07:45:27.995Z,17.95
2018-01-12T07:46:29.075Z,19.52
2018-01-12T07:47:30.135Z,17.67
2018-01-12T07:48:31.247Z,19.27
2018-01-12T07:49:32.345Z,13.88
2018-01-12T07:50:33.427Z,17.05
2018-01-12T07:51:34.510Z,14.60
2018-01-12T07:52:41.613Z,17.80
2018-01-12T07:53:42.716Z,14.00
2018-01-12T07:54:43.803Z,17.65
2018-01-12T07:55:44.891Z,12.65
2018-01-12T07:56:45.967Z,19.05
2018-01-12T07:57:47.039Z,16.10
2018-01-12T07:58:48.855Z,14.40
2018-01-12T07:59:49.943Z,16.02
2018-01-12T08:00:57.196Z,15.68
2018-01-12T08:02:05.075Z,16.05
2018-01-12T08:03:06.186Z,16.30
2018-01-12T08:04:07.331Z,17.27
2018-01-12T08:05:09.174Z,17.62
2018-01-12T08:06:10.267Z,20.98
2018-01-12T08:07:11.379Z,16.10
2018-01-12T08:08:13.199Z,15.50
2018-01-12T08:09:14.314Z,17.98
2018-01-12T08:10:15.406Z,17.80
2018-01-12T08:11:16.478Z,20.17
2018-01-12T08:12:17.550Z,18.00
2018-01-12T08:13:18.627Z,16.98
2018-01-12T08:14:19.736Z,22.45
2018-01-12T08:15:20.826Z,15.82
2018-01-12T08:16:21.903Z,21.55
2018-01-12T08:17:22.979Z,20.30
2018-01-12T08:18:24.102Z,20.52
2018-01-12T08:19:25.187Z,17.60
2018-01-12T08:20:26.253Z,18.95
2018-01-12T08:21:27.350Z,18.98
2018-01-12T08:22:28.449Z,19.90
2018-01-12T08:23:29.551Z,20.80
2018-01-12T08:24:30.625Z,16.02
2018-01-12T08:25:31.713Z,18.50
2018-01-12T08:26:32.820Z,17.80
2018-01-12T08:27:33.907Z,17.35
2018-01-12T08:28:34.974Z,16.27
2018-01-12T08:29:37.582Z,15.85
2018-01-12T08:30:38.671Z,17.02
2018-01-12T08:31:39.764Z,16.40
2018-01-12T08:32:40.861Z,18.42
2018-01-12T08:33:41.926Z,17.15
2018-01-12T08:34:43.010Z,17.65
2018-01-12T08:35:44.100Z,21.17
2018-01-12T08:36:45.274Z,18.12
2018-01-12T08:37:46.372Z,17.17
2018-01-12T08:38:47.458Z,17.58
2018-01-12T08:39:48.534Z,17.33
2018-01-12T08:40:49.663Z,17.80
2018-01-12T08:41:50.733Z,19.92
2018-01-12T08:42:51.832Z,17.90
2018-01-12T08:43:52.900Z,17.73
2018-01-12T08:44:53.984Z,20.95
2018-01-12T08:45:55.050Z,16.95
2018-01-12T08:46:56.138Z,20.70
2018-01-12T08:47:57.217Z,21.75
2018-01-12T08:48:59.026Z,15.65
2018-01-12T08:50:00.131Z,21.15
2018-01-12T08:51:01.194Z,16.73
2018-01-12T08:52:02.324Z,20.83
2018-01-12T08:53:03.399Z,18.25
2018-01-12T08:54:04.488Z,25.73
2018-01-12T08:55:05.555Z,21.27
2018-01-12T08:56:07.363Z,16.75
2018-01-12T08:57:08.434Z,17.48
2018-01-12T08:58:09.508Z,18.75
2018-01-12T08:59:10.598Z,17.00
2018-01-12T09:00:12.430Z,18.40
2018-01-12T09:01:13.534Z,16.08
2018-01-12T09:02:14.618Z,17.12
2018-01-12T09:03:15.723Z,20.30
2018-01-12T09:04:16.782Z,18.35
2018-01-12T09:05:18.602Z,18.30
2018-01-12T09:06:19.699Z,17.33
2018-01-12T09:07:20.806Z,16.83
2018-01-12T09:08:22.644Z,17.65
2018-01-12T09:09:23.744Z,15.25
2018-01-12T09:10:24.816Z,18.73
2018-01-12T09:11:25.896Z,18.73
2018-01-12T09:12:26.981Z,16.80
2018-01-12T09:13:40.442Z,16.15
2018-01-12T09:14:48.535Z,16.73
2018-01-12T09:16:01.993Z,13.32
2018-01-12T09:17:03.427Z,14.55
2018-01-12T09:18:04.495Z,19.92
2018-01-12T09:19:17.967Z,15.25
2018-01-12T09:20:19.076Z,17.20
2018-01-12T09:21:23.075Z,16.65
2018-01-12T09:22:25.975Z,19.10
2018-01-12T09:23:27.871Z,16.98
2018-01-12T09:24:28.951Z,17.80
2018-01-12T09:25:30.048Z,12.90
2018-01-12T09:26:31.107Z,17.42
2018-01-12T09:27:32.948Z,15.30
2018-01-12T09:28:34.043Z,12.20
2018-01-12T09:29:35.875Z,17.48
2018-01-12T09:30:36.963Z,16.92
2018-01-12T09:31:38.057Z,15.63
2018-01-12T09:32:39.932Z,16.02
2018-01-12T09:33:46.926Z,18.33
2018-01-12T09:35:03.943Z,17.25
2018-01-12T09:36:05.023Z,12.68
2018-01-12T09:37:06.082Z,16.55
2018-01-12T09:38:16.187Z,14.23
2018-01-12T09:39:30.317Z,14.73
2018-01-12T09:40:46.835Z,13.38
2018-01-12T09:41:48.680Z,14.65
2018-01-12T09:42:49.758Z,16.27
2018-01-12T09:43:50.824Z,16.35
2018-01-12T09:44:52.672Z,18.60
2018-01-12T09:45:53.752Z,16.37
2018-01-12T09:47:07.234Z,14.40
2018-01-12T09:48:36.294Z,14.70
2018-01-12T09:49:46.666Z,18.48
2018-01-12T09:50:47.830Z,12.57
2018-01-12T09:51:49.042Z,13.45
2018-01-12T09:52:50.156Z,17.10
2018-01-12T09:53:51.298Z,18.40
2018-01-12T09:54:52.413Z,15.60
2018-01-12T09:55:53.502Z,17.50
2018-01-12T09:56:54.590Z,15.23
2018-01-12T09:57:55.699Z,17.30
2018-01-12T09:59:02.742Z,13.88
2018-01-12T10:00:04.611Z,15.00
2018-01-12T10:01:12.878Z,17.25
2018-01-12T10:02:14.118Z,15.30
2018-01-12T10:03:15.791Z,13.32
2018-01-12T10:04:16.862Z,16.17
2018-01-12T10:05:17.958Z,16.52
2018-01-12T10:06:19.069Z,15.52
2018-01-12T10:07:20.189Z,16.58
2018-01-12T10:08:23.224Z,14.15
2018-01-12T10:09:29.338Z,16.00
2018-01-12T10:10:30.450Z,13.93
2018-01-12T10:11:31.571Z,15.73
2018-01-12T10:12:32.658Z,15.77
2018-01-12T10:13:33.744Z,16.55
2018-01-12T10:14:34.830Z,15.80
2018-01-12T10:15:35.927Z,15.57
2018-01-12T10:16:37.011Z,15.52
2018-01-12T10:17:38.072Z,14.20
2018-01-12T10:18:41.112Z,19.40
2018-01-12T10:20:01.142Z,17.73
2018-01-12T10:22:35.843Z,14.60
2018-01-12T10:23:36.962Z,17.80
2018-01-12T10:24:38.035Z,14.35
2018-01-12T10:25:39.831Z,19.23
2018-01-12T10:26:40.898Z,19.62
2018-01-12T10:27:41.988Z,13.73
2018-01-12T10:28:55.427Z,16.40
2018-01-12T10:29:56.494Z,16.15
2018-01-12T10:30:58.306Z,16.75
2018-01-12T10:32:06.563Z,14.95
2018-01-12T10:33:13.795Z,14.20
2018-01-12T10:34:27.192Z,17.40
2018-01-12T10:35:29.139Z,16.08
2018-01-12T10:36:35.199Z,18.15
2018-01-12T10:37:36.294Z,16.77
2018-01-12T10:38:37.363Z,13.10
2018-01-12T10:39:50.887Z,15.55
2018-01-12T10:41:17.858Z,11.77
2018-01-12T10:42:18.932Z,14.02
2018-01-12T10:43:20.022Z,17.45
2018-01-12T10:44:21.087Z,14.15
2018-01-12T10:45:22.899Z,17.80
2018-01-12T10:46:36.379Z,18.05
2018-01-12T10:47:48.700Z,16.65
2018-01-12T10:48:55.666Z,15.52
2018-01-12T10:50:17.387Z,15.70
2018-01-12T10:51:30.811Z,14.48
2018-01-12T10:52:36.890Z,12.88
2018-01-12T10:53:37.987Z,13.05
2018-01-12T10:54:39.071Z,15.20
2018-01-12T10:55:40.919Z,15.90
2018-01-12T10:56:42.738Z,12.25
2018-01-12T10:57:43.811Z,13.07
2018-01-12T10:58:45.606Z,18.23
2018-01-12T10:59:46.671Z,14.70
2018-01-12T11:00:47.758Z,19.20
2018-01-12T11:01:48.822Z,15.25
2018-01-12T11:02:49.877Z,18.25
2018-01-12T11:04:04.107Z,17.05
2018-01-12T11:05:06.486Z,17.05
2018-01-12T11:06:15.194Z,18.23
2018-01-12T11:07:16.270Z,15.48
2018-01-12T11:08:17.343Z,17.12
2018-01-12T11:09:18.390Z,19.23
2018-01-12T11:10:19.511Z,14.32
2018-01-12T11:11:21.335Z,14.82
2018-01-12T11:12:22.499Z,18.52
2018-01-12T11:13:23.561Z,17.90
2018-01-12T11:14:24.612Z,17.65
2018-01-12T11:15:25.693Z,17.42
2018-01-12T11:16:27.498Z,17.98
2018-01-12T11:17:28.566Z,18.98
2018-01-12T11:18:30.408Z,19.33
2018-01-12T11:19:31.473Z,17.42
2018-01-12T11:20:33.287Z,14.43
2018-01-12T11:21:34.355Z,15.25
2018-01-12T11:22:35.410Z,16.17
2018-01-12T11:23:36.474Z,22.30
2018-01-12T11:24:37.530Z,17.60
2018-01-12T11:25:38.594Z,17.37
2018-01-12T11:26:39.663Z,14.63
2018-01-12T11:27:40.722Z,21.75
2018-01-12T11:28:41.786Z,15.38
2018-01-12T11:29:43.643Z,20.35
2018-01-12T11:30:44.699Z,22.50
2018-01-12T11:31:45.804Z,16.30
2018-01-12T11:32:46.867Z,18.67
2018-01-12T11:33:47.926Z,21.55
2018-01-12T11:34:48.982Z,16.12
2018-01-12T11:35:50.806Z,17.60
2018-01-12T11:36:51.871Z,19.15
2018-01-12T11:37:52.971Z,15.32
2018-01-12T11:38:54.078Z,20.20
2018-01-12T11:39:55.148Z,16.05
2018-01-12T11:40:56.222Z,19.37
2018-01-12T11:41:57.305Z,15.38
2018-01-12T11:42:59.114Z,18.42
2018-01-12T11:44:00.209Z,16.02
2018-01-12T11:45:02.010Z,19.02
2018-01-12T11:46:03.080Z,15.70
2018-01-12T11:47:04.882Z,15.50
2018-01-12T11:48:06.977Z,17.77
2018-01-12T11:49:08.786Z,18.25
2018-01-12T11:50:09.834Z,16.98
2018-01-12T11:51:10.911Z,20.35
2018-01-12T11:52:12.740Z,14.82
2018-01-12T11:53:13.807Z,15.35
2018-01-12T11:54:14.866Z,17.70
2018-01-12T11:55:15.915Z,14.02
2018-01-12T11:56:16.969Z,18.17
2018-01-12T11:57:18.784Z,19.65
2018-01-12T11:58:19.861Z,17.00
2018-01-12T11:59:21.694Z,18.98
2018-01-12T12:00:22.783Z,14.45
2018-01-12T12:01:23.862Z,19.60
2018-01-12T12:02:24.919Z,13.93
2018-01-12T12:03:25.979Z,14.63
2018-01-12T12:04:27.057Z,15.32
2018-01-12T12:05:28.866Z,17.52
2018-01-12T12:06:29.922Z,17.05
2018-01-12T12:07:32.011Z,16.35
2018-01-12T12:08:33.071Z,14.38
2018-01-12T12:09:34.134Z,16.60
2018-01-12T12:10:35.199Z,17.02
2018-01-12T12:11:37.026Z,15.02
2018-01-12T12:12:38.086Z,15.38
2018-01-12T12:13:39.886Z,19.95
2018-01-12T12:14:40.972Z,16.60
2018-01-12T12:15:42.824Z,14.10
2018-01-12T12:16:43.911Z,15.60
2018-01-12T12:17:44.976Z,17.73
2018-01-12T12:18:46.783Z,17.08
2018-01-12T12:19:47.886Z,21.00
2018-01-12T12:20:48.958Z,14.05
2018-01-12T12:21:50.031Z,18.83
2018-01-12T12:22:51.107Z,17.05
2018-01-12T12:23:52.180Z,18.25
2018-01-12T12:24:53.288Z,15.85
2018-01-12T12:25:54.352Z,19.10
2018-01-12T12:26:56.171Z,16.60
2018-01-12T12:27:57.255Z,18.75
2018-01-12T12:28:58.334Z,17.92
2018-01-12T12:29:59.424Z,19.55
2018-01-12T12:31:00.495Z,18.25
2018-01-12T12:32:01.647Z,17.05
2018-01-12T12:33:02.714Z,16.85
2018-01-12T12:34:03.784Z,20.77
2018-01-12T12:35:04.882Z,18.15
2018-01-12T12:36:05.960Z,17.17
2018-01-12T12:37:07.824Z,20.62
2018-01-12T12:38:08.920Z,21.25
2018-01-12T12:39:09.979Z,15.77
2018-01-12T12:40:11.058Z,19.45
2018-01-12T12:41:12.150Z,19.05
2018-01-12T12:42:13.239Z,17.27
2018-01-12T12:43:14.319Z,22.62
2018-01-12T12:44:15.402Z,19.87
2018-01-12T12:45:16.470Z,18.50
2018-01-12T12:46:17.550Z,22.05
2018-01-12T12:47:18.679Z,21.80
2018-01-12T12:48:19.762Z,24.20
2018-01-12T12:49:20.834Z,21.77
2018-01-12T12:50:21.928Z,24.60
2018-01-12T12:51:23.011Z,19.62
2018-01-12T12:52:24.090Z,21.77
2018-01-12T12:53:25.167Z,23.02
2018-01-12T12:54:26.976Z,21.48
2018-01-12T12:55:28.051Z,23.12
2018-01-12T12:56:29.138Z,20.73
2018-01-12T12:57:30.233Z,18.92
2018-01-12T12:58:31.332Z,17.52
2018-01-12T12:59:32.406Z,15.63
2018-01-12T13:00:33.507Z,18.05
2018-01-12T13:01:35.339Z,16.85
2018-01-12T13:02:36.427Z,15.52
2018-01-12T13:03:44.514Z,18.05
2018-01-12T13:04:45.602Z,18.95
2018-01-12T13:05:47.414Z,20.05
2018-01-12T13:06:48.477Z,15.90
2018-01-12T13:07:49.579Z,18.77
2018-01-12T13:08:50.655Z,15.07
2018-01-12T13:09:51.722Z,16.00
2018-01-12T13:10:52.788Z,18.98
2018-01-12T13:11:53.906Z,21.67
2018-01-12T13:12:55.008Z,16.87
2018-01-12T13:13:56.092Z,20.00
2018-01-12T13:14:57.173Z,20.33
2018-01-12T13:15:58.264Z,20.83
2018-01-12T13:17:14.899Z,18.55
2018-01-12T13:18:16.975Z,19.80
2018-01-12T13:19:18.050Z,17.92